John F Kennedy International Airport
KJFK : now visible

Airfield :











YOU CAN JOIN US ON...

 
LOGIN :

Register | Disclaimer

   EN    FR    IT 

 









Legend :    VFR   Marginal VFR   IFR   Intensive IFR   Very Intensive IFR
Visi :
Ceiling :
>= 8 km
>= 3000ft
5 to 8 km
1000 to 3000 ft
1500m to 5 km
500 to 1000 ft
800 to 1500m
200 to 500 ft
< 800m
< 200 ft
Symbols :   Thunderstorms  Fog  Heavy snow  Heavy precipitations  Wind > 20 kt






- Airport Elevation : 13 ft
- IATA code : JFK


KJFK - John F Kennedy International

CURRENT METAR :
  • 161751Z 02009KT 10SM BKN033 BKN170 24/18 A3021 RMK AO2 SLP230 T02440178 10261 20222 50001

EXPIRED METARs :
  • 161651Z 06010KT 10SM BKN030 BKN055 OVC170 25/17 A3022 RMK AO2 SLP232 T02500172
  • 161551Z 06014KT 10SM FEW032 SCT050 BKN180 BKN270 26/17 A3021 RMK AO2 SLP231 T02560167

TAF KJFK
Valid from the 16 at 18:00 until the 18 at 00:00 UTC


161740Z 1618/1724 07009KT P6SM VCSH BKN030
FM162300 09009KT P6SM VCSH BKN027
FM170100 08009KT P6SM OVC008
FM171600 06010KT P6SM BKN013
FM172000 07009KT P6SM BKN023
FM172300 06008KT P6SM BKN035
KZNY FIR / North America



MET'MAP, your aeronautical weather chart ! - Copyright ORBIFLY December 2007 - Disclaimer

ORBIFLY MET'MAP TEAM :

Programming & Development : Alexandra Zaïnal
Concept & original design : Baudouin d'Aumeries
Assistance for programming : Marc-Olivier Méhu
Technical & hardware support : Manuel Goepfert

Contact : metmap@orbifly.com




SOURCES & CREDITS :

   NOAA       Earth
Advisory